Time;durP1;ratioP1;P1;durP2;ratioP2;P2;SDS_P1;SDS_P2;PMS_P1;PMS_P2;Temp;Humidity;BMP_temperature;BMP_pressure;BME280_temperature;BME280_humidity;BME280_pressure;Samples;Min_cycle;Max_cycle;Signal;HPM_P1;HPM_P2
2022/03/07 00:02:01;;;;;;;18.25;8.03;;;;;;;2.23;62.34;101605.80;1931762;74;21124;-58
2022/03/07 00:04:30;;;;;;;19.00;8.33;;;;;;;2.24;62.24;101601.02;1910505;74;21121;-58
2022/03/07 00:06:59;;;;;;;20.32;8.55;;;;;;;2.22;62.18;101594.94;1877857;75;21668;-62
2022/03/07 00:09:28;;;;;;;23.65;9.88;;;;;;;2.22;62.17;101594.94;1878274;75;21103;-63
2022/03/07 00:11:57;;;;;;;18.70;7.87;;;;;;;2.19;62.15;101595.34;1884691;76;21432;-62
2022/03/07 00:14:26;;;;;;;21.02;7.55;;;;;;;2.17;62.19;101592.72;1877789;76;21528;-62
2022/03/07 00:16:54;;;;;;;23.90;9.50;;;;;;;2.15;62.23;101596.17;1881002;76;21469;-62
2022/03/07 00:19:23;;;;;;;27.65;9.38;;;;;;;2.13;62.27;101593.56;1885149;76;21034;-63
2022/03/07 00:21:52;;;;;;;21.27;7.75;;;;;;;2.13;62.34;101591.82;1889681;76;21050;-61
2022/03/07 00:24:21;;;;;;;17.02;7.95;;;;;;;2.16;62.31;101589.70;1888725;76;21600;-61
2022/03/07 00:26:50;;;;;;;20.17;8.28;;;;;;;2.16;62.30;101581.91;1889567;76;21054;-61
2022/03/07 00:29:19;;;;;;;23.67;8.40;;;;;;;2.17;62.32;101581.47;1892499;75;21042;-61
2022/03/07 00:31:48;;;;;;;24.37;8.58;;;;;;;2.17;62.34;101574.97;1888369;76;21104;-60
2022/03/07 00:34:16;;;;;;;22.93;9.13;;;;;;;2.15;62.43;101568.45;1878238;76;21604;-61
2022/03/07 00:36:45;;;;;;;17.25;7.33;;;;;;;2.14;62.55;101562.83;1878371;76;21134;-61
2022/03/07 00:39:15;;;;;;;15.50;7.03;;;;;;;2.13;62.61;101561.08;1881286;76;21481;-62
2022/03/07 00:41:44;;;;;;;20.32;8.10;;;;;;;2.11;62.62;101558.90;1892468;76;21081;-62
2022/03/07 00:44:13;;;;;;;17.37;7.97;;;;;;;2.09;62.65;101560.18;1892325;76;21113;-61
2022/03/07 00:46:42;;;;;;;19.23;7.45;;;;;;;2.06;62.79;101560.58;1892550;76;21156;-60
2022/03/07 00:49:11;;;;;;;21.75;7.62;;;;;;;2.05;62.87;101558.86;1892196;76;21540;-62
2022/03/07 00:51:40;;;;;;;15.28;7.08;;;;;;;2.05;62.85;101557.12;1892437;76;21565;-61
2022/03/07 00:54:10;;;;;;;22.62;8.30;;;;;;;2.06;62.83;101552.78;1892535;76;21117;-62
2022/03/07 00:56:39;;;;;;;14.58;7.15;;;;;;;2.05;62.83;101549.33;1892497;76;21097;-63
2022/03/07 00:59:07;;;;;;;19.23;8.20;;;;;;;2.02;62.93;101547.12;1892404;76;21117;-64
2022/03/07 01:01:36;;;;;;;22.35;8.15;;;;;;;2.02;62.97;101547.12;1892466;75;21128;-63
2022/03/07 01:04:05;;;;;;;16.80;8.10;;;;;;;2.00;63.09;101551.44;1892303;76;21033;-64
2022/03/07 01:06:34;;;;;;;20.60;8.15;;;;;;;1.97;63.29;101549.66;1892465;76;21081;-61
2022/03/07 01:09:03;;;;;;;21.85;8.15;;;;;;;1.97;63.39;101547.50;1892254;76;21111;-62
2022/03/07 01:11:32;;;;;;;20.77;8.53;;;;;;;1.98;63.44;101541.47;1892347;76;21133;-62
2022/03/07 01:14:01;;;;;;;18.85;7.78;;;;;;;2.02;63.53;101553.62;1892652;76;21097;-59
2022/03/07 01:16:29;;;;;;;20.82;7.22;;;;;;;2.06;63.47;101550.19;1887578;76;21158;-59
2022/03/07 01:18:58;;;;;;;20.15;8.68;;;;;;;2.08;63.53;101549.77;1886732;76;21131;-60
2022/03/07 01:21:26;;;;;;;17.98;7.67;;;;;;;2.08;63.55;101544.14;1886986;76;21014;-60
2022/03/07 01:23:55;;;;;;;18.25;7.45;;;;;;;2.13;63.40;101542.89;1886761;76;21152;-60
2022/03/07 01:26:24;;;;;;;20.12;7.58;;;;;;;2.16;63.25;101540.73;1886462;76;21061;-60
2022/03/07 01:28:52;;;;;;;22.60;8.33;;;;;;;2.17;63.20;101539.45;1865184;76;21074;-60
2022/03/07 01:31:21;;;;;;;18.25;8.05;;;;;;;2.18;63.13;101539.91;1851447;77;21062;-61
2022/03/07 01:33:50;;;;;;;20.23;7.12;;;;;;;2.17;63.08;101540.75;1851430;77;21035;-62
2022/03/07 01:36:19;;;;;;;23.55;9.10;;;;;;;2.18;63.04;101545.11;1850593;77;20999;-65
2022/03/07 01:38:48;;;;;;;18.75;7.72;;;;;;;2.18;63.04;101543.81;1851428;77;21592;-64
2022/03/07 01:41:17;;;;;;;18.95;7.75;;;;;;;2.17;62.99;101551.14;1851417;77;21055;-64
2022/03/07 01:43:45;;;;;;;20.77;6.72;;;;;;;2.16;62.89;101548.13;1852040;77;21501;-64
2022/03/07 01:46:15;;;;;;;23.50;8.15;;;;;;;2.15;62.85;101541.17;1851326;76;21501;-65
2022/03/07 01:48:44;;;;;;;20.02;7.62;;;;;;;2.13;62.79;101541.59;1851762;77;21497;-65
2022/03/07 01:51:16;;;;;;;18.65;7.80;;;;;;;2.11;62.76;101529.02;1851929;77;21622;-65
2022/03/07 01:53:46;;;;;;;14.47;6.83;;;;;;;2.06;62.77;101529.41;1852110;77;21083;-60
2022/03/07 01:56:16;;;;;;;19.32;7.83;;;;;;;2.05;62.73;101531.58;1851772;76;21110;-64
2022/03/07 01:58:45;;;;;;;14.68;6.12;;;;;;;2.02;62.68;101527.64;1843101;76;21054;-62
2022/03/07 02:01:14;;;;;;;19.25;6.60;;;;;;;1.99;62.66;101526.31;1839869;78;21018;-60
2022/03/07 02:03:43;;;;;;;16.62;6.83;;;;;;;1.97;62.63;101524.98;1839809;78;21484;-63
2022/03/07 02:06:12;;;;;;;16.50;6.58;;;;;;;1.96;62.63;101525.86;1839821;78;21469;-63
2022/03/07 02:08:42;;;;;;;16.48;6.85;;;;;;;1.93;62.57;101521.48;1840582;77;21104;-64
2022/03/07 02:11:14;;;;;;;15.83;7.37;;;;;;;1.92;62.55;101521.06;1839271;78;21107;-64
2022/03/07 02:13:44;;;;;;;18.75;7.85;;;;;;;1.92;62.54;101515.02;1839904;78;21051;-63
2022/03/07 02:16:14;;;;;;;17.98;7.00;;;;;;;1.91;62.57;101516.72;1849664;77;21550;-62
2022/03/07 02:18:42;;;;;;;17.02;7.28;;;;;;;1.92;62.56;101518.47;1849476;76;21113;-64
2022/03/07 02:21:18;;;;;;;16.85;7.53;;;;;;;1.90;62.51;101514.99;1849531;77;21494;-64
2022/03/07 02:24:01;;;;;;;17.10;7.87;;;;;;;1.88;62.50;101511.92;1848989;77;21070;-64
2022/03/07 02:26:30;;;;;;;16.52;6.50;;;;;;;1.86;62.52;101514.53;1849494;77;21711;-64
2022/03/07 02:29:00;;;;;;;17.75;7.83;;;;;;;1.86;62.50;101514.94;1861818;74;21085;-64
2022/03/07 02:31:31;;;;;;;15.48;6.20;;;;;;;1.86;62.52;101511.93;1890643;76;21093;-64
2022/03/07 02:34:02;;;;;;;18.00;7.72;;;;;;;1.87;62.50;101505.86;1878616;76;21066;-64
2022/03/07 02:36:31;;;;;;;16.27;6.37;;;;;;;1.88;62.46;101502.42;1876779;76;21461;-63
2022/03/07 02:39:01;;;;;;;12.82;6.05;;;;;;;1.86;62.44;101505.44;1876277;76;21046;-64
2022/03/07 02:41:30;;;;;;;19.60;6.10;;;;;;;1.87;62.43;101502.41;1802567;79;21129;-64
2022/03/07 02:44:00;;;;;;;19.35;7.20;;;;;;;1.84;62.41;101500.63;1815506;79;21591;-64
2022/03/07 02:46:29;;;;;;;15.55;6.50;;;;;;;1.84;62.38;101492.84;1815480;79;21041;-64
2022/03/07 02:48:57;;;;;;;18.67;6.50;;;;;;;1.84;62.37;101491.98;1812765;79;21120;-64
2022/03/07 02:51:26;;;;;;;15.90;6.60;;;;;;;1.83;62.37;101489.82;1837808;76;21137;-64
2022/03/07 02:53:55;;;;;;;17.87;6.95;;;;;;;1.84;62.38;101488.95;1842387;78;21550;-65
2022/03/07 02:56:24;;;;;;;15.50;6.30;;;;;;;1.84;62.36;101485.48;1842272;78;21064;-64
2022/03/07 02:58:53;;;;;;;17.20;6.37;;;;;;;1.84;62.32;101486.34;1842150;78;21084;-64
2022/03/07 03:01:22;;;;;;;17.90;6.00;;;;;;;1.85;62.31;101475.55;1844454;76;21079;-64
2022/03/07 03:03:51;;;;;;;15.88;6.47;;;;;;;1.85;62.30;101479.02;1842378;78;21604;-65
2022/03/07 03:06:20;;;;;;;16.67;6.20;;;;;;;1.83;62.27;101477.27;1842305;78;21606;-65
2022/03/07 03:08:49;;;;;;;17.12;7.17;;;;;;;1.81;62.29;101475.95;1842244;78;21051;-64
2022/03/07 03:11:17;;;;;;;15.68;6.78;;;;;;;1.79;62.30;101477.67;1842672;76;21431;-64
2022/03/07 03:13:46;;;;;;;17.98;6.47;;;;;;;1.77;62.34;101479.39;1830861;77;21120;-62
2022/03/07 03:16:15;;;;;;;15.15;5.95;;;;;;;1.80;62.37;101479.39;1830195;78;21153;-61
2022/03/07 03:18:44;;;;;;;15.03;6.20;;;;;;;1.82;62.37;101477.67;1830109;78;21082;-61
2022/03/07 03:21:12;;;;;;;17.90;5.87;;;;;;;1.84;62.30;101472.50;1830186;78;21138;-61
2022/03/07 03:23:41;;;;;;;16.12;6.40;;;;;;;1.85;62.27;101473.82;1873519;76;21050;-61
2022/03/07 03:26:09;;;;;;;17.65;7.05;;;;;;;1.86;62.22;101478.17;1876682;76;21058;-62
2022/03/07 03:28:40;;;;;;;17.32;6.92;;;;;;;1.88;62.18;101481.65;1848138;75;21212;-60
2022/03/07 03:31:11;;;;;;;13.95;6.83;;;;;;;1.87;62.16;101472.54;1859590;77;21526;-60
2022/03/07 03:33:41;;;;;;;17.15;6.53;;;;;;;1.86;62.16;101478.58;1859636;77;21048;-60
2022/03/07 03:36:10;;;;;;;17.57;7.35;;;;;;;1.86;62.21;101475.98;1859850;77;21073;-60
2022/03/07 03:38:39;;;;;;;13.85;6.62;;;;;;;1.85;62.30;101475.12;1859926;77;21134;-60
2022/03/07 03:41:07;;;;;;;16.42;6.90;;;;;;;1.84;62.33;101468.17;1859766;76;21044;-60
2022/03/07 03:43:36;;;;;;;14.87;6.65;;;;;;;1.87;62.26;101473.84;1859730;77;21534;-61
2022/03/07 03:46:05;;;;;;;17.65;7.35;;;;;;;1.88;62.21;101463.47;1859781;77;21096;-61
2022/03/07 03:48:33;;;;;;;15.58;6.53;;;;;;;1.91;62.18;101467.37;1860009;76;21153;-61
2022/03/07 03:51:02;;;;;;;13.35;6.37;;;;;;;1.91;62.17;101457.42;1859823;77;21085;-60
2022/03/07 03:53:31;;;;;;;19.25;7.53;;;;;;;1.90;62.14;101451.36;1859919;77;21044;-61
2022/03/07 03:56:00;;;;;;;16.95;7.45;;;;;;;1.90;62.14;101451.36;1859889;77;21048;-62
2022/03/07 03:58:28;;;;;;;16.37;7.47;;;;;;;1.91;62.14;101448.33;1859840;76;21103;-60
2022/03/07 04:00:57;;;;;;;21.05;8.75;;;;;;;1.89;62.21;101443.11;1859952;77;21044;-60
2022/03/07 04:03:27;;;;;;;21.05;9.20;;;;;;;1.90;62.23;101443.57;1859909;76;21559;-60
2022/03/07 04:05:55;;;;;;;19.10;8.25;;;;;;;1.91;62.18;101445.29;1859677;77;21532;-60
2022/03/07 04:08:25;;;;;;;18.07;8.43;;;;;;;1.90;62.23;101445.27;1859778;77;21514;-60
2022/03/07 04:10:54;;;;;;;17.35;6.67;;;;;;;1.90;62.23;101440.08;1859732;76;21181;-60
2022/03/07 04:13:22;;;;;;;18.05;7.47;;;;;;;1.91;62.22;101434.05;1859834;77;21178;-59
2022/03/07 04:15:51;;;;;;;16.00;7.33;;;;;;;1.91;62.18;101435.34;1859865;77;20997;-59
2022/03/07 04:18:19;;;;;;;18.37;7.35;;;;;;;1.89;62.16;101427.97;1859850;76;21024;-59
2022/03/07 04:20:48;;;;;;;18.80;7.42;;;;;;;1.89;62.14;101417.58;1859841;77;21564;-60
2022/03/07 04:23:20;;;;;;;20.23;8.20;;;;;;;1.88;62.21;101415.83;1859945;76;21020;-61
2022/03/07 04:25:48;;;;;;;18.57;7.83;;;;;;;1.88;62.24;101418.02;1859619;76;21035;-60
2022/03/07 04:28:17;;;;;;;17.70;8.00;;;;;;;1.88;62.25;101415.83;1870783;76;21542;-59
2022/03/07 04:30:45;;;;;;;17.57;6.67;;;;;;;1.89;62.24;101412.39;1883639;76;21117;-60
2022/03/07 04:33:14;;;;;;;18.27;7.45;;;;;;;1.88;62.26;101401.55;1883710;76;21552;-60
2022/03/07 04:35:42;;;;;;;21.25;8.10;;;;;;;1.86;62.26;101397.67;1883661;75;21020;-62
2022/03/07 04:38:11;;;;;;;21.82;8.75;;;;;;;1.87;62.26;101399.38;1883742;76;21067;-60
2022/03/07 04:40:40;;;;;;;25.37;8.55;;;;;;;1.88;62.30;101397.65;1883602;76;21041;-61
2022/03/07 04:43:09;;;;;;;17.23;7.20;;;;;;;1.90;62.31;101388.14;1883699;76;21046;-62
2022/03/07 04:45:38;;;;;;;18.15;7.45;;;;;;;1.92;62.33;101393.80;1883565;76;21195;-62
2022/03/07 04:48:06;;;;;;;18.10;7.37;;;;;;;1.96;62.36;101389.94;1883690;75;21115;-62
2022/03/07 04:50:35;;;;;;;20.37;8.20;;;;;;;1.99;62.33;101389.50;1883694;76;21117;-62
2022/03/07 04:53:04;;;;;;;26.65;8.25;;;;;;;2.02;62.31;101388.23;1883822;76;21129;-61
2022/03/07 04:55:32;;;;;;;20.72;8.58;;;;;;;2.03;62.30;101381.30;1883608;76;21008;-61
2022/03/07 04:58:01;;;;;;;16.87;7.40;;;;;;;2.03;62.35;101377.00;1883695;76;21076;-62
2022/03/07 05:00:31;;;;;;;18.73;8.08;;;;;;;2.08;62.34;101378.31;1883778;76;21060;-62
2022/03/07 05:03:00;;;;;;;21.55;8.90;;;;;;;2.11;62.33;101377.03;1883619;76;21110;-62
2022/03/07 05:05:28;;;;;;;18.62;8.35;;;;;;;2.14;62.31;101379.66;1883563;76;21032;-62
2022/03/07 05:07:57;;;;;;;23.65;9.55;;;;;;;2.18;62.28;101375.36;1883630;76;21068;-63
2022/03/07 05:10:26;;;;;;;22.55;9.13;;;;;;;2.22;62.24;101377.97;1883641;76;21064;-62
2022/03/07 05:12:54;;;;;;;19.57;8.40;;;;;;;2.24;62.36;101373.64;1883694;76;21072;-61
2022/03/07 05:15:24;;;;;;;20.32;8.48;;;;;;;2.24;62.48;101374.94;1883509;76;21129;-62
2022/03/07 05:17:58;;;;;;;21.73;9.03;;;;;;;2.30;62.38;101370.20;1883780;76;21030;-61
2022/03/07 05:20:24;;;;;;;22.93;9.25;;;;;;;2.35;62.33;101365.05;1881498;76;21026;-61
2022/03/07 05:22:54;;;;;;;22.82;9.68;;;;;;;2.42;62.21;101373.31;1883713;76;21034;-62
2022/03/07 05:25:24;;;;;;;24.55;9.98;;;;;;;2.50;62.13;101379.41;1883776;76;21138;-61
2022/03/07 05:27:52;;;;;;;21.25;9.50;;;;;;;2.58;62.08;101368.59;1883458;76;21073;-62
2022/03/07 05:30:23;;;;;;;22.02;10.00;;;;;;;2.67;61.99;101366.46;1879296;76;21537;-61
2022/03/07 05:32:54;;;;;;;24.82;10.63;;;;;;;2.78;61.97;101360.86;1879165;76;21063;-61
2022/03/07 05:35:23;;;;;;;21.12;10.10;;;;;;;2.84;61.84;101370.41;1879136;76;21133;-63
2022/03/07 05:37:52;;;;;;;21.07;10.55;;;;;;;2.88;61.75;101360.04;1885032;76;21042;-62
2022/03/07 05:40:21;;;;;;;24.75;10.63;;;;;;;2.89;61.72;101368.70;1894644;76;21022;-63
2022/03/07 05:42:50;;;;;;;28.55;11.50;;;;;;;2.94;61.75;101368.73;1894556;76;21045;-61
2022/03/07 05:45:19;;;;;;;26.10;10.53;;;;;;;2.97;61.97;101363.52;1894689;76;21112;-61
2022/03/07 05:47:47;;;;;;;26.30;10.48;;;;;;;2.99;61.88;101358.77;1891416;76;21058;-61
2022/03/07 05:50:16;;;;;;;22.87;9.85;;;;;;;3.02;61.82;101356.15;1894497;76;21050;-61
2022/03/07 05:52:45;;;;;;;25.77;11.05;;;;;;;3.05;61.94;101357.47;1894432;76;21134;-62
2022/03/07 05:55:13;;;;;;;26.52;10.28;;;;;;;3.15;61.99;101363.98;1872319;76;21014;-62
2022/03/07 05:57:42;;;;;;;25.32;10.43;;;;;;;3.23;61.91;101359.68;1846501;78;21529;-61
2022/03/07 06:00:12;;;;;;;23.87;11.18;;;;;;;3.27;61.74;101360.11;1852803;77;21055;-63
2022/03/07 06:02:41;;;;;;;23.20;10.78;;;;;;;3.33;61.65;101354.90;1872718;77;21047;-63
2022/03/07 06:05:10;;;;;;;24.67;10.40;;;;;;;3.28;61.86;101356.63;1871319;76;21031;-64
2022/03/07 06:07:39;;;;;;;26.40;10.28;;;;;;;3.22;62.18;101353.58;1872645;77;21439;-63
2022/03/07 06:10:08;;;;;;;27.82;10.85;;;;;;;3.29;62.13;101353.17;1872680;77;21043;-63
2022/03/07 06:12:37;;;;;;;25.43;10.43;;;;;;;3.34;61.99;101350.14;1872727;77;21027;-64
2022/03/07 06:15:07;;;;;;;26.45;10.32;;;;;;;3.42;61.84;101349.70;1872498;77;21106;-65
2022/03/07 06:17:35;;;;;;;27.73;11.22;;;;;;;3.52;61.90;101337.98;1874559;76;21509;-62
2022/03/07 06:20:05;;;;;;;27.58;10.53;;;;;;;3.66;61.68;101340.15;1878934;76;21124;-64
2022/03/07 06:22:34;;;;;;;19.80;8.75;;;;;;;3.74;61.35;101335.78;1879093;76;21043;-64
2022/03/07 06:25:03;;;;;;;27.30;10.25;;;;;;;3.83;61.12;101333.16;1879106;76;21010;-62
2022/03/07 06:27:32;;;;;;;29.63;11.12;;;;;;;3.95;60.90;101332.73;1861129;76;21000;-65
2022/03/07 06:30:00;;;;;;;24.35;10.10;;;;;;;3.99;60.53;101329.25;1863491;75;21521;-63
2022/03/07 06:32:29;;;;;;;23.22;9.90;;;;;;;4.00;60.50;101325.75;1872528;77;21063;-62
2022/03/07 06:34:58;;;;;;;23.05;9.25;;;;;;;3.94;60.65;101325.78;1872464;77;21051;-62
2022/03/07 06:37:27;;;;;;;25.25;10.18;;;;;;;3.90;60.92;101322.75;1870738;77;21549;-63
2022/03/07 06:39:55;;;;;;;25.10;9.85;;;;;;;3.94;60.82;101313.61;1870762;77;21317;-64
2022/03/07 06:42:24;;;;;;;27.50;11.30;;;;;;;4.08;60.68;101309.67;1871337;77;21039;-63
2022/03/07 06:44:53;;;;;;;29.35;11.50;;;;;;;4.17;60.55;101314.86;1872501;76;21059;-62
2022/03/07 06:47:21;;;;;;;23.40;10.85;;;;;;;4.23;60.43;101303.09;1872613;77;21051;-62
2022/03/07 06:49:56;;;;;;;27.15;12.28;;;;;;;4.31;60.25;101300.90;1917738;74;21095;-60
2022/03/07 06:52:22;;;;;;;27.07;10.95;;;;;;;4.35;60.12;101293.08;1945712;74;21133;-60
2022/03/07 06:54:51;;;;;;;31.55;12.55;;;;;;;4.46;60.01;101292.99;1933418;74;21145;-60
2022/03/07 06:57:21;;;;;;;31.00;10.88;;;;;;;4.52;60.00;101286.88;1933540;74;21589;-60
2022/03/07 06:59:50;;;;;;;22.07;8.80;;;;;;;4.62;60.05;101287.27;1931094;74;21082;-60
2022/03/07 07:02:19;;;;;;;24.87;10.82;;;;;;;4.72;59.71;101293.30;1933384;74;21071;-60
2022/03/07 07:04:48;;;;;;;24.15;10.95;;;;;;;4.77;59.68;101290.23;1933512;74;21121;-60
2022/03/07 07:07:17;;;;;;;34.75;13.65;;;;;;;4.82;59.44;101280.63;1931827;74;21471;-60
2022/03/07 07:09:46;;;;;;;24.55;10.43;;;;;;;4.81;59.10;101282.39;1900429;75;21087;-60
2022/03/07 07:12:15;;;;;;;32.23;11.70;;;;;;;4.74;59.39;101277.19;1900357;75;21525;-61
2022/03/07 07:14:43;;;;;;;26.85;10.53;;;;;;;4.70;59.57;101278.09;1900413;75;21040;-60
2022/03/07 07:17:12;;;;;;;24.00;11.20;;;;;;;4.66;59.52;101272.47;1911963;74;21528;-59
2022/03/07 07:19:41;;;;;;;24.37;10.60;;;;;;;4.54;59.34;101272.12;1933530;74;21110;-59
2022/03/07 07:22:10;;;;;;;27.27;10.88;;;;;;;4.46;59.41;101259.09;1933531;74;21160;-60
2022/03/07 07:24:39;;;;;;;27.27;10.38;;;;;;;4.52;59.39;101259.08;1933454;74;21474;-60
2022/03/07 07:27:08;;;;;;;27.37;10.38;;;;;;;4.42;59.58;101257.39;1931229;74;21102;-59
2022/03/07 07:29:37;;;;;;;20.80;9.20;;;;;;;4.30;59.90;101254.41;1933660;74;21153;-61
2022/03/07 07:32:06;;;;;;;23.85;10.50;;;;;;;4.31;59.59;101246.15;1933688;74;21008;-57
2022/03/07 07:34:35;;;;;;;27.42;10.58;;;;;;;4.34;59.57;101244.84;1932981;74;21060;-61
2022/03/07 07:37:04;;;;;;;28.02;11.73;;;;;;;4.42;59.49;101239.98;1927010;73;21027;-62
2022/03/07 07:39:33;;;;;;;28.27;10.40;;;;;;;4.46;59.20;101236.93;1918801;73;21089;-60
2022/03/07 07:42:02;;;;;;;24.02;10.85;;;;;;;4.47;59.15;101237.37;1917685;74;21122;-61
2022/03/07 07:44:31;;;;;;;28.27;11.20;;;;;;;4.41;59.27;101242.63;1933594;74;21040;-61
2022/03/07 07:46:59;;;;;;;26.42;11.20;;;;;;;4.43;59.24;101239.58;1918863;74;21047;-61
2022/03/07 07:49:30;;;;;;;24.43;10.40;;;;;;;4.48;59.16;101236.48;1922174;74;21064;-64
2022/03/07 07:51:58;;;;;;;28.77;11.78;;;;;;;4.56;59.12;101235.16;1910641;75;21031;-64
2022/03/07 07:54:30;;;;;;;25.60;10.85;;;;;;;4.59;58.89;101228.59;1911540;73;20993;-65
2022/03/07 07:57:02;;;;;;;26.97;10.98;;;;;;;4.61;58.93;101225.12;1899579;75;21070;-64
2022/03/07 07:59:30;;;;;;;23.73;10.90;;;;;;;4.66;58.96;101220.30;1899822;75;21102;-62
2022/03/07 08:01:58;;;;;;;28.52;11.68;;;;;;;4.61;59.04;101222.51;1899403;75;21149;-62
2022/03/07 08:04:27;;;;;;;30.02;11.53;;;;;;;4.51;59.16;101224.73;1898747;75;21110;-62
2022/03/07 08:06:56;;;;;;;26.17;10.90;;;;;;;4.46;59.00;101221.28;1900671;74;21162;-60
2022/03/07 08:09:24;;;;;;;27.58;10.78;;;;;;;4.45;59.03;101216.52;1877367;74;21050;-58
2022/03/07 08:11:53;;;;;;;33.80;11.80;;;;;;;4.47;59.17;101216.52;1872609;75;21019;-58
2022/03/07 08:14:23;;;;;;;31.00;11.73;;;;;;;4.53;59.15;101216.46;1903702;74;21054;-58
2022/03/07 08:16:52;;;;;;;34.78;11.48;;;;;;;4.57;59.19;101215.55;1902991;75;21236;-58
2022/03/07 08:19:21;;;;;;;27.48;10.63;;;;;;;4.61;59.09;101212.08;1891260;75;21140;-59
2022/03/07 08:21:51;;;;;;;30.55;11.03;;;;;;;4.60;58.97;101207.72;1904804;75;21121;-58
2022/03/07 08:24:20;;;;;;;29.50;11.40;;;;;;;4.59;58.89;101203.81;1905533;74;21035;-58
2022/03/07 08:26:48;;;;;;;35.08;11.97;;;;;;;4.61;58.90;101202.95;1918169;75;21026;-58
2022/03/07 08:29:17;;;;;;;34.33;11.25;;;;;;;4.67;58.85;101205.06;1918048;75;21167;-59
2022/03/07 08:31:47;;;;;;;30.92;13.78;;;;;;;4.75;58.87;101203.28;1918208;75;21062;-57
2022/03/07 08:34:16;;;;;;;30.43;12.53;;;;;;;4.84;58.78;101198.84;1918130;75;21010;-57
2022/03/07 08:36:45;;;;;;;31.77;11.50;;;;;;;4.94;58.67;101199.66;1918067;75;21031;-57
2022/03/07 08:39:14;;;;;;;23.55;11.70;;;;;;;5.00;58.67;101194.38;1918092;75;21497;-57
2022/03/07 08:41:42;;;;;;;30.17;11.12;;;;;;;5.05;58.53;101184.33;1918038;75;21034;-58
2022/03/07 08:44:11;;;;;;;29.20;11.63;;;;;;;5.12;58.45;101180.78;1914437;75;21052;-57
2022/03/07 08:46:41;;;;;;;33.10;11.70;;;;;;;5.09;58.17;101181.69;1929046;74;21035;-57
2022/03/07 08:49:10;;;;;;;31.25;13.50;;;;;;;5.06;58.34;101176.48;1928637;74;21133;-57
2022/03/07 08:51:40;;;;;;;29.23;11.57;;;;;;;5.09;58.41;101175.58;1907580;75;21048;-57
2022/03/07 08:54:08;;;;;;;29.15;10.85;;;;;;;5.17;58.35;101181.16;1907274;74;21060;-57
2022/03/07 08:56:37;;;;;;;27.87;11.55;;;;;;;5.28;58.31;101167.16;1907400;75;21020;-58
2022/03/07 08:59:06;;;;;;;31.57;12.75;;;;;;;5.37;58.21;101165.30;1907455;75;21033;-57
2022/03/07 09:01:36;;;;;;;27.02;10.38;;;;;;;5.45;58.11;101168.27;1885803;74;21024;-58
2022/03/07 09:04:06;;;;;;;26.17;10.00;;;;;;;5.54;57.98;101164.25;1871708;76;21110;-60
2022/03/07 09:06:34;;;;;;;37.88;13.08;;;;;;;5.59;57.84;101161.15;1868971;76;21008;-57
2022/03/07 09:09:03;;;;;;;42.00;12.90;;;;;;;5.64;57.62;101158.02;1874807;76;21115;-57
2022/03/07 09:11:32;;;;;;;25.10;10.65;;;;;;;5.86;57.78;101164.30;1861937;76;21160;-57
2022/03/07 09:14:01;;;;;;;39.27;13.15;;;;;;;6.04;57.38;101160.16;1811843;78;21066;-58
2022/03/07 09:16:30;;;;;;;36.23;12.90;;;;;;;6.16;57.19;101158.70;1815732;78;21144;-57
2022/03/07 09:18:59;;;;;;;28.85;11.75;;;;;;;6.21;57.08;101159.07;1866612;77;21057;-58
2022/03/07 09:21:27;;;;;;;69.47;21.85;;;;;;;6.16;56.94;101156.50;1843605;78;21133;-58
2022/03/07 09:23:56;;;;;;;39.70;13.30;;;;;;;6.03;56.83;101156.26;1866628;77;21084;-58
2022/03/07 09:26:25;;;;;;;38.98;13.03;;;;;;;5.95;57.08;101160.25;1843604;78;21054;-58
2022/03/07 09:28:54;;;;;;;29.92;8.58;;;;;;;5.95;57.18;101155.03;1866602;77;21104;-58
2022/03/07 09:31:22;;;;;;;33.48;11.30;;;;;;;5.94;57.14;101157.23;1843608;78;21458;-58
2022/03/07 09:33:51;;;;;;;21.05;8.70;;;;;;;5.86;56.99;101152.53;1866519;77;21460;-60
2022/03/07 09:36:20;;;;;;;26.48;9.95;;;;;;;5.90;56.91;101148.99;1843701;78;21128;-60
2022/03/07 09:38:50;;;;;;;33.88;9.65;;;;;;;6.26;56.52;101146.80;1866697;77;21095;-59
2022/03/07 09:41:19;;;;;;;30.00;10.82;;;;;;;7.87;54.59;101137.78;1852106;76;21156;-64
2022/03/07 09:43:48;;;;;;;38.98;11.75;;;;;;;8.07;54.02;101132.96;1872354;76;21064;-61
2022/03/07 09:46:17;;;;;;;35.17;14.47;;;;;;;7.84;54.36;101136.11;1874080;76;21065;-62
2022/03/07 09:48:47;;;;;;;31.87;11.22;;;;;;;7.53;54.62;101137.19;1874729;76;21118;-60
2022/03/07 09:51:15;;;;;;;34.15;12.60;;;;;;;7.28;54.86;101144.19;1901616;74;21537;-59
2022/03/07 09:53:44;;;;;;;32.98;10.98;;;;;;;7.08;55.03;101138.47;1921354;75;21104;-59
2022/03/07 09:56:13;;;;;;;33.15;11.78;;;;;;;6.84;55.45;101132.80;1921239;75;21027;-60
2022/03/07 09:58:42;;;;;;;25.50;10.82;;;;;;;6.70;55.85;101134.33;1921274;75;21034;-62
2022/03/07 10:01:13;;;;;;;27.15;9.13;;;;;;;6.71;55.96;101132.56;1921351;74;21035;-60
2022/03/07 10:03:43;;;;;;;28.65;10.15;;;;;;;6.72;56.05;101126.45;1903740;75;21010;-60
2022/03/07 10:06:19;;;;;;;28.38;10.68;;;;;;;6.72;56.20;101121.22;1866547;77;21099;-60
2022/03/07 10:09:00;;;;;;;28.62;10.68;;;;;;;6.73;56.03;101123.81;1866661;77;21017;-58
2022/03/07 10:11:30;;;;;;;27.87;10.72;;;;;;;6.75;56.09;101119.84;1866677;77;21066;-60
2022/03/07 10:14:05;;;;;;;26.87;10.63;;;;;;;6.83;56.24;101117.97;1866710;77;21022;-59
2022/03/07 10:16:41;;;;;;;26.23;10.23;;;;;;;6.95;56.11;101111.64;1866603;76;21508;-58
2022/03/07 10:19:12;;;;;;;26.93;10.63;;;;;;;7.02;55.82;101113.26;1888594;76;21010;-60
2022/03/07 10:21:50;;;;;;;28.67;11.73;;;;;;;6.98;55.75;101108.13;1888616;76;21529;-61
2022/03/07 10:24:20;;;;;;;30.90;12.37;;;;;;;6.89;55.99;101112.61;1888574;76;21155;-59
2022/03/07 10:26:48;;;;;;;29.42;13.75;;;;;;;6.90;56.42;101106.50;1888643;76;21092;-60
2022/03/07 10:29:17;;;;;;;26.52;11.25;;;;;;;6.93;56.65;101106.45;1888539;76;21078;-60
2022/03/07 10:31:47;;;;;;;29.63;11.78;;;;;;;7.07;56.52;101093.55;1888507;76;21030;-61
2022/03/07 10:34:16;;;;;;;32.00;12.50;;;;;;;7.15;56.20;101087.70;1888643;76;21100;-59
2022/03/07 10:36:47;;;;;;;26.73;11.85;;;;;;;7.27;56.14;101084.00;1888579;76;21006;-60
2022/03/07 10:39:18;;;;;;;26.27;12.13;;;;;;;7.30;56.09;101083.50;1903014;75;21109;-62
2022/03/07 10:41:48;;;;;;;24.43;11.08;;;;;;;7.26;55.91;101090.97;1921339;74;21093;-58
2022/03/07 10:44:29;;;;;;;27.73;12.03;;;;;;;7.21;55.86;101082.38;1921368;75;21485;-60
2022/03/07 10:47:12;;;;;;;27.42;11.57;;;;;;;7.12;55.67;101081.24;1921295;75;21058;-61
2022/03/07 10:49:56;;;;;;;30.05;10.75;;;;;;;7.00;55.81;101075.77;1921805;75;21039;-59
2022/03/07 10:52:26;;;;;;;33.80;12.35;;;;;;;6.93;55.92;101072.42;1915518;73;21140;-59
2022/03/07 10:54:55;;;;;;;28.92;11.57;;;;;;;6.83;55.99;101070.85;1921405;75;21038;-62
2022/03/07 10:57:23;;;;;;;26.42;12.07;;;;;;;6.74;56.12;101076.25;1921555;74;21580;-58
2022/03/07 10:59:52;;;;;;;29.45;11.08;;;;;;;6.65;56.20;101073.80;1921382;75;21088;-60
2022/03/07 11:02:21;;;;;;;30.43;12.35;;;;;;;6.59;56.29;101072.61;1921416;75;21039;-60
2022/03/07 11:04:52;;;;;;;20.90;9.05;;;;;;;6.49;56.43;101075.38;1921474;75;21466;-60
2022/03/07 11:07:21;;;;;;;27.82;12.28;;;;;;;6.42;56.51;101070.25;1921322;75;21104;-60
2022/03/07 11:09:52;;;;;;;25.80;10.10;;;;;;;6.32;56.63;101067.78;1921281;75;21109;-61
2022/03/07 11:12:20;;;;;;;26.82;10.80;;;;;;;6.32;56.72;101072.16;1921312;74;21023;-61
2022/03/07 11:14:49;;;;;;;27.32;10.35;;;;;;;6.31;56.79;101065.22;1921343;75;21468;-60
2022/03/07 11:17:19;;;;;;;24.82;11.18;;;;;;;6.32;56.78;101065.62;1921364;75;21155;-61
2022/03/07 11:19:51;;;;;;;27.40;10.58;;;;;;;6.32;56.80;101070.40;1921389;75;21509;-60
2022/03/07 11:22:19;;;;;;;22.17;9.58;;;;;;;6.32;56.83;101063.86;1921461;74;21579;-60
2022/03/07 11:24:48;;;;;;;24.43;9.70;;;;;;;6.40;56.81;101058.53;1921372;75;21582;-60
2022/03/07 11:27:20;;;;;;;25.52;10.32;;;;;;;6.48;56.69;101059.25;1921367;75;21482;-60
2022/03/07 11:29:49;;;;;;;24.98;11.22;;;;;;;6.57;56.61;101060.86;1921355;75;21038;-60
2022/03/07 11:32:19;;;;;;;23.30;9.93;;;;;;;6.68;56.58;101047.59;1921285;75;21041;-60